Create Tblcommutelog Verified Points Advance Search
| # | Trip ID | Id Commuter | Trip Date | Trip Num | Current Lat | Current Lng | Delta Distance | Current Time | Activity | Activity Confidence | Current Speed | |
|---|---|---|---|---|---|---|---|---|---|---|---|---|
| 70321 | 251105_776280_16643805_1633 | 776280 | (not set) | (not set) | 38.993597 | -77.0300077 | 7.6744 | 2025-11-05 16:53:42 | in_vehicle | 100 | 0.31739787388128 | |
| 70322 | 251105_776280_16643805_1633 | 776280 | (not set) | (not set) | 38.993597 | -77.0300077 | 7.6744 | 2025-11-05 16:53:42 | in_vehicle | 100 | 0.31739787388128 | |
| 70323 | 251105_776280_16643805_1633 | 776280 | (not set) | (not set) | 38.993597 | -77.0300077 | 7.6744 | 2025-11-05 16:53:42 | in_vehicle | 100 | 0.31739787388128 | |
| 70324 | 251105_776280_16643805_1633 | 776280 | (not set) | (not set) | 38.993597 | -77.0300077 | 7.6744 | 2025-11-05 16:53:42 | in_vehicle | 100 | 0.31739787388128 | |
| 70325 | 251105_784108_16652594_1612 | 784108 | (not set) | (not set) | 39.301476503033 | -77.338932048074 | 25.4527 | 2025-11-05 16:53:43 | in_vehicle | 100 | 8.3730453208401 | |
| 70326 | 251105_784108_16652594_1612 | 784108 | (not set) | (not set) | 39.301476503033 | -77.338932048074 | 25.4527 | 2025-11-05 16:53:43 | in_vehicle | 100 | 8.3730453208401 | |
| 70327 | 251105_789037_16657801_1626 | 789037 | (not set) | (not set) | 38.929923916618 | -76.632135062438 | 17.0053 | 2025-11-05 16:53:43 | in_vehicle | 100 | 8.5160978837161 | |
| 70328 | 251105_789037_16657801_1626 | 789037 | (not set) | (not set) | 38.929923916618 | -76.632135062438 | 17.0053 | 2025-11-05 16:53:43 | in_vehicle | 100 | 8.5160978837161 | |
| 70329 | 251105_788397_16657014_1640 | 788397 | (not set) | (not set) | 38.968718957263 | -77.000161518222 | 2.4527 | 2025-11-05 16:53:44 | in_vehicle | 100 | 5.9813852852558 | |
| 70330 | 251105_789139_16657932_1637 | 789139 | (not set) | (not set) | 38.9026479 | -77.0376066 | 0.4248 | 2025-11-05 16:44:31 | walking | 100 | 0.044703925898772 | |
| 70331 | 251105_789139_16657932_1637 | 789139 | (not set) | (not set) | 38.9024519 | -77.0367885 | 0.4709 | 2025-11-05 16:44:39 | walking | 100 | 0.071526281438036 | |
| 70332 | 251105_789139_16657932_1637 | 789139 | (not set) | (not set) | 38.9028939 | -77.0360405 | 0.5215 | 2025-11-05 16:46:23 | walking | 100 | 5.0157804858423 | |
| 70333 | 251105_789139_16657932_1637 | 789139 | (not set) | (not set) | 38.9025857 | -77.0318373 | 0.752 | 2025-11-05 16:48:19 | walking | 100 | 1.9535615617764 | |
| 70334 | 251105_789139_16657932_1637 | 789139 | (not set) | (not set) | 38.9024298 | -77.0331268 | 0.6817 | 2025-11-05 16:47:00 | walking | 100 | 1.3366473843733 | |
| 70335 | 251105_789139_16657932_1637 | 789139 | (not set) | (not set) | 38.9023476 | -77.0296149 | 0.873 | 2025-11-05 16:48:31 | walking | 100 | 8.4579827800477 | |
| 70336 | 251105_760008_16626628_1627 | 760008 | (not set) | (not set) | 38.9050907 | -77.0239243 | 3.3019 | 2025-11-05 16:53:44 | on_bicycle | 100 | 2.8521104723417 | |
| 70337 | 251105_760008_16626628_1627 | 760008 | (not set) | (not set) | 38.9050907 | -77.0239243 | 3.3019 | 2025-11-05 16:53:44 | on_bicycle | 100 | 2.8521104723417 | |
| 70338 | 251105_760008_16626628_1627 | 760008 | (not set) | (not set) | 38.9050907 | -77.0239243 | 3.3019 | 2025-11-05 16:53:44 | on_bicycle | 100 | 2.8521104723417 | |
| 70339 | 251105_789139_16657932_1637 | 789139 | (not set) | (not set) | 38.9003575 | -77.0269569 | 1.0819 | 2025-11-05 16:49:38 | walking | 100 | 0.053644711078527 | |
| 70340 | 251105_789139_16657932_1637 | 789139 | (not set) | (not set) | 38.9008302 | -77.0269824 | 1.0493 | 2025-11-05 16:49:34 | walking | 100 | 0.026822355539263 |